sensor_id;sensor_type;location;lat;lon;timestamp;pressure;altitude;pressure_sealevel;temperature;humidity
38780;BME280;29273;49.962;9.768;2022-12-11T00:01:09;99160.06;;;3.84;53.68
38780;BME280;29273;49.962;9.768;2022-12-11T00:03:34;99163.38;;;3.78;53.56
38780;BME280;29273;49.962;9.768;2022-12-11T00:06:04;99165.16;;;3.78;53.94
38780;BME280;29273;49.962;9.768;2022-12-11T00:08:30;99159.81;;;3.71;53.84
38780;BME280;29273;49.962;9.768;2022-12-11T00:10:55;99171.47;;;3.68;53.92
38780;BME280;29273;49.962;9.768;2022-12-11T00:13:20;99165.75;;;3.65;53.85
38780;BME280;29273;49.962;9.768;2022-12-11T00:15:46;99167.88;;;3.61;53.68
38780;BME280;29273;49.962;9.768;2022-12-11T00:18:12;99164.00;;;3.57;53.65
38780;BME280;29273;49.962;9.768;2022-12-11T00:20:38;99167.75;;;3.55;53.84
38780;BME280;29273;49.962;9.768;2022-12-11T00:23:04;99170.75;;;3.51;53.94
38780;BME280;29273;49.962;9.768;2022-12-11T00:25:29;99166.66;;;3.49;53.98
38780;BME280;29273;49.962;9.768;2022-12-11T00:27:55;99169.44;;;3.47;54.06
38780;BME280;29273;49.962;9.768;2022-12-11T00:30:20;99170.41;;;3.46;54.22
38780;BME280;29273;49.962;9.768;2022-12-11T00:32:46;99165.38;;;3.45;54.08
38780;BME280;29273;49.962;9.768;2022-12-11T00:35:11;99168.81;;;3.45;54.17
38780;BME280;29273;49.962;9.768;2022-12-11T00:37:37;99170.41;;;3.46;54.34
38780;BME280;29273;49.962;9.768;2022-12-11T00:40:02;99175.66;;;3.46;54.32
38780;BME280;29273;49.962;9.768;2022-12-11T00:42:28;99172.22;;;3.46;54.48
38780;BME280;29273;49.962;9.768;2022-12-11T00:44:54;99167.63;;;3.48;54.58
38780;BME280;29273;49.962;9.768;2022-12-11T00:47:20;99174.34;;;3.50;54.64
38780;BME280;29273;49.962;9.768;2022-12-11T00:49:46;99178.59;;;3.51;54.78
38780;BME280;29273;49.962;9.768;2022-12-11T00:52:11;99180.84;;;3.55;54.76
38780;BME280;29273;49.962;9.768;2022-12-11T00:54:36;99183.97;;;3.58;54.75
38780;BME280;29273;49.962;9.768;2022-12-11T00:57:02;99182.16;;;3.59;54.80
38780;BME280;29273;49.962;9.768;2022-12-11T00:59:27;99182.63;;;3.62;54.82
38780;BME280;29273;49.962;9.768;2022-12-11T01:01:54;99185.69;;;3.66;55.05
38780;BME280;29273;49.962;9.768;2022-12-11T01:04:19;99184.72;;;3.67;54.93
38780;BME280;29273;49.962;9.768;2022-12-11T01:06:45;99188.97;;;3.68;54.81
38780;BME280;29273;49.962;9.768;2022-12-11T01:09:10;99197.47;;;3.70;55.16
38780;BME280;29273;49.962;9.768;2022-12-11T01:11:54;99196.31;;;3.73;55.04
38780;BME280;29273;49.962;9.768;2022-12-11T01:14:19;99199.56;;;3.75;54.97
38780;BME280;29273;49.962;9.768;2022-12-11T01:16:45;99200.22;;;3.77;55.26
38780;BME280;29273;49.962;9.768;2022-12-11T01:19:10;99205.28;;;3.78;55.15
38780;BME280;29273;49.962;9.768;2022-12-11T01:21:36;99209.34;;;3.81;55.26
38780;BME280;29273;49.962;9.768;2022-12-11T01:24:01;99209.81;;;3.84;55.31
38780;BME280;29273;49.962;9.768;2022-12-11T01:26:27;99204.41;;;3.86;55.32
38780;BME280;29273;49.962;9.768;2022-12-11T01:28:53;99200.47;;;3.90;55.34
38780;BME280;29273;49.962;9.768;2022-12-11T01:31:19;99208.97;;;3.92;55.58
38780;BME280;29273;49.962;9.768;2022-12-11T01:33:45;99203.38;;;3.95;55.39
38780;BME280;29273;49.962;9.768;2022-12-11T01:36:15;99200.88;;;4.02;55.38
38780;BME280;29273;49.962;9.768;2022-12-11T01:38:43;99195.81;;;4.00;55.38
38780;BME280;29273;49.962;9.768;2022-12-11T01:41:09;99204.31;;;4.02;55.18
38780;BME280;29273;49.962;9.768;2022-12-11T01:43:54;99198.72;;;4.05;55.13
38780;BME280;29273;49.962;9.768;2022-12-11T01:46:20;99197.94;;;4.05;55.35
38780;BME280;29273;49.962;9.768;2022-12-11T01:48:45;99194.13;;;4.07;55.16
38780;BME280;29273;49.962;9.768;2022-12-11T01:51:11;99192.34;;;4.08;55.37
38780;BME280;29273;49.962;9.768;2022-12-11T01:53:39;99192.63;;;4.13;55.10
38780;BME280;29273;49.962;9.768;2022-12-11T01:56:06;99201.28;;;4.14;55.09
38780;BME280;29273;49.962;9.768;2022-12-11T01:58:46;99190.28;;;4.18;54.91
38780;BME280;29273;49.962;9.768;2022-12-11T02:01:34;99200.78;;;4.18;54.82
38780;BME280;29273;49.962;9.768;2022-12-11T02:04:01;99194.88;;;4.16;54.97
38780;BME280;29273;49.962;9.768;2022-12-11T02:09:03;99191.91;;;4.19;54.89
38780;BME280;29273;49.962;9.768;2022-12-11T02:11:38;99196.00;;;4.22;54.77
38780;BME280;29273;49.962;9.768;2022-12-11T02:14:12;99196.81;;;4.22;54.77
38780;BME280;29273;49.962;9.768;2022-12-11T02:16:49;99199.44;;;4.22;54.83
38780;BME280;29273;49.962;9.768;2022-12-11T02:19:43;99201.41;;;4.20;54.57
38780;BME280;29273;49.962;9.768;2022-12-11T02:22:21;99202.03;;;4.22;54.74
38780;BME280;29273;49.962;9.768;2022-12-11T02:27:42;99205.69;;;4.21;54.74
38780;BME280;29273;49.962;9.768;2022-12-11T02:30:12;99203.22;;;4.20;54.82
38780;BME280;29273;49.962;9.768;2022-12-11T02:32:52;99199.25;;;4.24;54.66
38780;BME280;29273;49.962;9.768;2022-12-11T02:35:26;99201.06;;;4.23;54.62
38780;BME280;29273;49.962;9.768;2022-12-11T02:37:57;99200.06;;;4.24;54.75
38780;BME280;29273;49.962;9.768;2022-12-11T02:40:27;99196.63;;;4.24;54.65
38780;BME280;29273;49.962;9.768;2022-12-11T02:42:56;99196.63;;;4.24;54.70
38780;BME280;29273;49.962;9.768;2022-12-11T02:45:25;99202.03;;;4.22;54.45
38780;BME280;29273;49.962;9.768;2022-12-11T02:47:52;99191.09;;;4.19;54.56
38780;BME280;29273;49.962;9.768;2022-12-11T02:50:20;99196.97;;;4.21;54.38
38780;BME280;29273;49.962;9.768;2022-12-11T02:52:47;99196.50;;;4.17;54.25
38780;BME280;29273;49.962;9.768;2022-12-11T02:55:15;99191.63;;;4.14;54.53
38780;BME280;29273;49.962;9.768;2022-12-11T02:57:59;99196.06;;;4.14;54.17
38780;BME280;29273;49.962;9.768;2022-12-11T03:00:26;99199.72;;;4.04;54.22
38780;BME280;29273;49.962;9.768;2022-12-11T03:02:52;99199.06;;;4.02;54.14
38780;BME280;29273;49.962;9.768;2022-12-11T03:05:17;99205.66;;;3.98;54.13
38780;BME280;29273;49.962;9.768;2022-12-11T03:07:43;99197.34;;;3.95;54.20
38780;BME280;29273;49.962;9.768;2022-12-11T03:10:13;99195.53;;;3.95;54.17
38780;BME280;29273;49.962;9.768;2022-12-11T03:12:41;99192.44;;;3.92;54.16
38780;BME280;29273;49.962;9.768;2022-12-11T03:15:10;99194.41;;;3.89;54.39
38780;BME280;29273;49.962;9.768;2022-12-11T03:18:00;99193.59;;;3.89;54.12
38780;BME280;29273;49.962;9.768;2022-12-11T03:23:21;99191.31;;;3.86;54.56
38780;BME280;29273;49.962;9.768;2022-12-11T03:26:03;99186.91;;;3.86;54.20
38780;BME280;29273;49.962;9.768;2022-12-11T03:28:46;99187.44;;;3.82;54.83
38780;BME280;29273;49.962;9.768;2022-12-11T03:33:55;99191.66;;;3.83;54.75
38780;BME280;29273;49.962;9.768;2022-12-11T03:36:30;99184.28;;;3.86;54.73
38780;BME280;29273;49.962;9.768;2022-12-11T03:38:59;99182.66;;;3.85;54.91
38780;BME280;29273;49.962;9.768;2022-12-11T03:41:26;99188.69;;;3.86;54.89
38780;BME280;29273;49.962;9.768;2022-12-11T03:43:56;99191.94;;;3.88;54.88
38780;BME280;29273;49.962;9.768;2022-12-11T03:46:27;99188.81;;;3.93;54.86
38780;BME280;29273;49.962;9.768;2022-12-11T03:48:59;99190.47;;;3.94;54.74
38780;BME280;29273;49.962;9.768;2022-12-11T03:51:28;99194.91;;;3.93;54.80
38780;BME280;29273;49.962;9.768;2022-12-11T03:53:54;99199.28;;;3.93;54.74
38780;BME280;29273;49.962;9.768;2022-12-11T03:56:21;99196.34;;;3.96;54.72
38780;BME280;29273;49.962;9.768;2022-12-11T03:58:48;99199.75;;;3.96;54.67
38780;BME280;29273;49.962;9.768;2022-12-11T04:01:13;99200.78;;;3.95;54.61
38780;BME280;29273;49.962;9.768;2022-12-11T04:03:39;99194.53;;;3.96;54.71
38780;BME280;29273;49.962;9.768;2022-12-11T04:06:05;99184.88;;;3.97;54.62
38780;BME280;29273;49.962;9.768;2022-12-11T04:08:30;99186.50;;;3.98;54.54
38780;BME280;29273;49.962;9.768;2022-12-11T04:10:55;99189.09;;;3.98;54.57
38780;BME280;29273;49.962;9.768;2022-12-11T04:14:05;99191.38;;;4.01;54.53
38780;BME280;29273;49.962;9.768;2022-12-11T04:16:49;99180.63;;;3.96;54.55
38780;BME280;29273;49.962;9.768;2022-12-11T04:19:15;99190.13;;;3.97;54.60
38780;BME280;29273;49.962;9.768;2022-12-11T04:21:59;99181.41;;;3.96;54.66
38780;BME280;29273;49.962;9.768;2022-12-11T04:24:46;99180.91;;;4.01;54.63
38780;BME280;29273;49.962;9.768;2022-12-11T04:27:12;99189.09;;;3.98;54.51
38780;BME280;29273;49.962;9.768;2022-12-11T04:29:38;99189.09;;;3.98;54.54
38780;BME280;29273;49.962;9.768;2022-12-11T04:32:03;99187.50;;;3.97;54.48
38780;BME280;29273;49.962;9.768;2022-12-11T04:34:29;99183.06;;;3.97;54.35
38780;BME280;29273;49.962;9.768;2022-12-11T04:36:54;99177.03;;;3.97;54.38
38780;BME280;29273;49.962;9.768;2022-12-11T04:39:20;99177.38;;;3.94;54.10
38780;BME280;29273;49.962;9.768;2022-12-11T04:41:45;99177.53;;;3.92;54.07
38780;BME280;29273;49.962;9.768;2022-12-11T04:44:11;99175.44;;;3.87;53.88
38780;BME280;29273;49.962;9.768;2022-12-11T04:46:36;99174.00;;;3.85;53.92
38780;BME280;29273;49.962;9.768;2022-12-11T04:49:02;99176.13;;;3.81;53.78
38780;BME280;29273;49.962;9.768;2022-12-11T04:51:28;99180.06;;;3.77;54.01
38780;BME280;29273;49.962;9.768;2022-12-11T04:53:53;99178.59;;;3.75;53.78
38780;BME280;29273;49.962;9.768;2022-12-11T04:56:20;99172.91;;;3.71;53.59
38780;BME280;29273;49.962;9.768;2022-12-11T04:58:46;99177.84;;;3.66;53.50
38780;BME280;29273;49.962;9.768;2022-12-11T05:01:13;99179.03;;;3.63;53.52
38780;BME280;29273;49.962;9.768;2022-12-11T05:03:40;99182.16;;;3.59;53.50
38780;BME280;29273;49.962;9.768;2022-12-11T05:06:07;99178.22;;;3.55;53.63
38780;BME280;29273;49.962;9.768;2022-12-11T05:08:34;99186.44;;;3.51;53.71
38780;BME280;29273;49.962;9.768;2022-12-11T05:11:03;99171.72;;;3.50;53.72
38780;BME280;29273;49.962;9.768;2022-12-11T05:13:29;99175.66;;;3.46;53.82
38780;BME280;29273;49.962;9.768;2022-12-11T05:15:55;99168.00;;;3.45;53.73
38780;BME280;29273;49.962;9.768;2022-12-11T05:18:20;99176.00;;;3.43;53.85
38780;BME280;29273;49.962;9.768;2022-12-11T05:20:57;99163.56;;;3.45;53.65
38780;BME280;29273;49.962;9.768;2022-12-11T05:23:23;99166.69;;;3.41;53.72
38780;BME280;29273;49.962;9.768;2022-12-11T05:25:58;99159.47;;;3.43;53.54
38780;BME280;29273;49.962;9.768;2022-12-11T05:28:26;99165.25;;;3.38;54.06
38780;BME280;29273;49.962;9.768;2022-12-11T05:30:55;99167.03;;;3.38;53.79
38780;BME280;29273;49.962;9.768;2022-12-11T05:33:21;99166.56;;;3.34;53.81
38780;BME280;29273;49.962;9.768;2022-12-11T05:35:47;99160.50;;;3.33;54.03
38780;BME280;29273;49.962;9.768;2022-12-11T05:38:13;99156.41;;;3.31;54.06
38780;BME280;29273;49.962;9.768;2022-12-11T05:40:38;99153.97;;;3.29;53.89
38780;BME280;29273;49.962;9.768;2022-12-11T05:43:04;99153.16;;;3.29;53.79
38780;BME280;29273;49.962;9.768;2022-12-11T05:45:29;99152.53;;;3.27;53.83
38780;BME280;29273;49.962;9.768;2022-12-11T05:47:55;99153.50;;;3.26;53.71
38780;BME280;29273;49.962;9.768;2022-12-11T05:50:20;99153.03;;;3.22;53.45
38780;BME280;29273;49.962;9.768;2022-12-11T05:52:46;99150.59;;;3.21;53.29
38780;BME280;29273;49.962;9.768;2022-12-11T05:55:12;99158.78;;;3.18;53.09
38780;BME280;29273;49.962;9.768;2022-12-11T05:57:38;99148.00;;;3.12;53.11
38780;BME280;29273;49.962;9.768;2022-12-11T06:00:05;99164.69;;;3.11;53.18
38780;BME280;29273;49.962;9.768;2022-12-11T06:02:33;99164.19;;;3.08;53.11
38780;BME280;29273;49.962;9.768;2022-12-11T06:04:59;99164.06;;;3.01;53.46
38780;BME280;29273;49.962;9.768;2022-12-11T06:07:25;99172.22;;;2.98;53.50
38780;BME280;29273;49.962;9.768;2022-12-11T06:09:50;99175.03;;;2.96;53.53
38780;BME280;29273;49.962;9.768;2022-12-11T06:12:15;99170.94;;;2.94;53.51
38780;BME280;29273;49.962;9.768;2022-12-11T06:14:41;99171.91;;;2.93;53.88
38780;BME280;29273;49.962;9.768;2022-12-11T06:17:06;99170.16;;;2.93;53.88
38780;BME280;29273;49.962;9.768;2022-12-11T06:19:32;99168.97;;;2.96;54.05
38780;BME280;29273;49.962;9.768;2022-12-11T06:21:57;99177.47;;;2.98;53.92
38780;BME280;29273;49.962;9.768;2022-12-11T06:24:23;99171.09;;;3.01;53.65
38780;BME280;29273;49.962;9.768;2022-12-11T06:26:48;99180.41;;;3.03;53.99
38780;BME280;29273;49.962;9.768;2022-12-11T06:29:14;99180.91;;;3.07;54.42
38780;BME280;29273;49.962;9.768;2022-12-11T06:31:40;99180.56;;;3.10;54.41
38780;BME280;29273;49.962;9.768;2022-12-11T06:34:05;99181.69;;;3.15;54.43
38780;BME280;29273;49.962;9.768;2022-12-11T06:36:30;99178.72;;;3.19;54.47
38780;BME280;29273;49.962;9.768;2022-12-11T06:38:56;99181.66;;;3.24;54.45
38780;BME280;29273;49.962;9.768;2022-12-11T06:41:21;99177.69;;;3.28;54.49
38780;BME280;29273;49.962;9.768;2022-12-11T06:43:47;99180.81;;;3.31;54.38
38780;BME280;29273;49.962;9.768;2022-12-11T06:46:15;99179.94;;;3.39;54.23
38780;BME280;29273;49.962;9.768;2022-12-11T06:48:41;99177.97;;;3.41;54.27
38780;BME280;29273;49.962;9.768;2022-12-11T06:51:08;99179.44;;;3.44;54.35
38780;BME280;29273;49.962;9.768;2022-12-11T06:53:34;99173.03;;;3.46;54.18
38780;BME280;29273;49.962;9.768;2022-12-11T06:56:04;99177.94;;;3.49;54.29
38780;BME280;29273;49.962;9.768;2022-12-11T06:58:30;99169.09;;;3.50;54.02
38780;BME280;29273;49.962;9.768;2022-12-11T07:00:57;99171.53;;;3.52;54.01
38780;BME280;29273;49.962;9.768;2022-12-11T07:03:23;99174.00;;;3.54;53.59
38780;BME280;29273;49.962;9.768;2022-12-11T07:05:48;99172.34;;;3.52;53.33
38780;BME280;29273;49.962;9.768;2022-12-11T07:08:14;99167.94;;;3.53;53.32
38780;BME280;29273;49.962;9.768;2022-12-11T07:10:40;99168.94;;;3.52;53.02
38780;BME280;29273;49.962;9.768;2022-12-11T07:13:05;99158.78;;;3.49;52.74
38780;BME280;29273;49.962;9.768;2022-12-11T07:15:31;99154.69;;;3.46;52.93
38780;BME280;29273;49.962;9.768;2022-12-11T07:17:57;99158.97;;;3.47;53.08
38780;BME280;29273;49.962;9.768;2022-12-11T07:20:22;99151.13;;;3.47;53.09
38780;BME280;29273;49.962;9.768;2022-12-11T07:22:48;99148.50;;;3.47;53.12
38780;BME280;29273;49.962;9.768;2022-12-11T07:25:13;99156.19;;;3.49;53.13
38780;BME280;29273;49.962;9.768;2022-12-11T07:27:39;99154.38;;;3.49;53.03
38780;BME280;29273;49.962;9.768;2022-12-11T07:30:06;99156.81;;;3.51;52.83
38780;BME280;29273;49.962;9.768;2022-12-11T07:32:32;99156.00;;;3.50;52.81
38780;BME280;29273;49.962;9.768;2022-12-11T07:34:58;99159.44;;;3.51;53.22
38780;BME280;29273;49.962;9.768;2022-12-11T07:37:23;99158.47;;;3.52;53.10
38780;BME280;29273;49.962;9.768;2022-12-11T07:39:49;99166.13;;;3.54;53.03
38780;BME280;29273;49.962;9.768;2022-12-11T07:42:15;99168.59;;;3.55;53.03
38780;BME280;29273;49.962;9.768;2022-12-11T07:44:40;99170.03;;;3.58;52.97
38780;BME280;29273;49.962;9.768;2022-12-11T07:47:06;99174.47;;;3.57;52.66
38780;BME280;29273;49.962;9.768;2022-12-11T07:49:31;99176.28;;;3.57;52.90
38780;BME280;29273;49.962;9.768;2022-12-11T07:51:56;99175.28;;;3.58;52.88
38780;BME280;29273;49.962;9.768;2022-12-11T07:54:22;99173.50;;;3.58;52.76
38780;BME280;29273;49.962;9.768;2022-12-11T07:56:47;99182.16;;;3.59;52.81
38780;BME280;29273;49.962;9.768;2022-12-11T07:59:13;99175.75;;;3.61;52.86
38780;BME280;29273;49.962;9.768;2022-12-11T08:01:40;99174.94;;;3.61;52.68
38780;BME280;29273;49.962;9.768;2022-12-11T08:04:08;99175.56;;;3.63;52.58
38780;BME280;29273;49.962;9.768;2022-12-11T08:06:36;99179.66;;;3.65;52.84
38780;BME280;29273;49.962;9.768;2022-12-11T08:09:05;99176.88;;;3.67;52.56
38780;BME280;29273;49.962;9.768;2022-12-11T08:11:30;99179.66;;;3.65;52.64
38780;BME280;29273;49.962;9.768;2022-12-11T08:13:57;99177.69;;;3.67;52.42
38780;BME280;29273;49.962;9.768;2022-12-11T08:16:27;99184.09;;;3.65;52.44
38780;BME280;29273;49.962;9.768;2022-12-11T08:18:52;99188.50;;;3.64;52.28
38780;BME280;29273;49.962;9.768;2022-12-11T08:21:21;99194.19;;;3.68;52.75
38780;BME280;29273;49.962;9.768;2022-12-11T08:23:47;99195.38;;;3.65;52.68
38780;BME280;29273;49.962;9.768;2022-12-11T08:26:15;99196.19;;;3.66;52.39
38780;BME280;29273;49.962;9.768;2022-12-11T08:28:41;99192.75;;;3.65;52.61
38780;BME280;29273;49.962;9.768;2022-12-11T08:31:08;99201.25;;;3.67;52.35
38780;BME280;29273;49.962;9.768;2022-12-11T08:33:35;99200.28;;;3.68;52.42
38780;BME280;29273;49.962;9.768;2022-12-11T08:36:03;99206.94;;;3.71;52.55
38780;BME280;29273;49.962;9.768;2022-12-11T08:38:29;99203.34;;;3.72;52.78
38780;BME280;29273;49.962;9.768;2022-12-11T08:40:55;99206.94;;;3.71;52.27
38780;BME280;29273;49.962;9.768;2022-12-11T08:43:21;99211.38;;;3.70;52.48
38780;BME280;29273;49.962;9.768;2022-12-11T08:45:46;99208.59;;;3.72;52.54
38780;BME280;29273;49.962;9.768;2022-12-11T08:48:12;99211.84;;;3.74;52.69
38780;BME280;29273;49.962;9.768;2022-12-11T08:50:37;99208.09;;;3.77;52.47
38780;BME280;29273;49.962;9.768;2022-12-11T08:53:04;99209.53;;;3.79;52.39
38780;BME280;29273;49.962;9.768;2022-12-11T08:55:32;99215.22;;;3.83;52.21
38780;BME280;29273;49.962;9.768;2022-12-11T08:57:57;99222.44;;;3.81;52.40
38780;BME280;29273;49.962;9.768;2022-12-11T09:00:23;99221.47;;;3.82;52.00
38780;BME280;29273;49.962;9.768;2022-12-11T09:02:48;99223.25;;;3.81;52.22
38780;BME280;29273;49.962;9.768;2022-12-11T09:05:14;99224.25;;;3.80;51.73
38780;BME280;29273;49.962;9.768;2022-12-11T09:07:39;99223.47;;;3.80;51.51
38780;BME280;29273;49.962;9.768;2022-12-11T09:10:06;99215.41;;;3.81;51.37
38780;BME280;29273;49.962;9.768;2022-12-11T09:12:33;99209.34;;;3.81;51.40
38780;BME280;29273;49.962;9.768;2022-12-11T09:14:58;99216.41;;;3.80;51.38
38780;BME280;29273;49.962;9.768;2022-12-11T09:17:24;99209.53;;;3.79;51.17
38780;BME280;29273;49.962;9.768;2022-12-11T09:19:50;99209.34;;;3.81;51.17
38780;BME280;29273;49.962;9.768;2022-12-11T09:22:15;99205.94;;;3.80;51.40
38780;BME280;29273;49.962;9.768;2022-12-11T09:24:41;99202.50;;;3.80;51.12
38780;BME280;29273;49.962;9.768;2022-12-11T09:27:06;99205.94;;;3.80;51.11
38780;BME280;29273;49.962;9.768;2022-12-11T09:29:32;99207.75;;;3.80;51.30
38780;BME280;29273;49.962;9.768;2022-12-11T09:31:57;99214.59;;;3.81;51.44
38780;BME280;29273;49.962;9.768;2022-12-11T09:34:23;99210.38;;;3.80;51.41
38780;BME280;29273;49.962;9.768;2022-12-11T09:36:48;99209.34;;;3.81;50.93
38780;BME280;29273;49.962;9.768;2022-12-11T09:39:15;99208.03;;;3.85;51.27
38780;BME280;29273;49.962;9.768;2022-12-11T09:42:03;99205.25;;;3.86;51.57
38780;BME280;29273;49.962;9.768;2022-12-11T09:47:16;99202.09;;;3.91;51.54
38780;BME280;29273;49.962;9.768;2022-12-11T09:49:44;99203.91;;;3.91;51.45
38780;BME280;29273;49.962;9.768;2022-12-11T09:52:34;99193.72;;;3.96;51.64
38780;BME280;29273;49.962;9.768;2022-12-11T09:55:14;99189.94;;;3.98;51.38
38780;BME280;29273;49.962;9.768;2022-12-11T10:00:30;99186.59;;;4.04;50.85
38780;BME280;29273;49.962;9.768;2022-12-11T10:05:55;99180.50;;;4.12;50.70
38780;BME280;29273;49.962;9.768;2022-12-11T10:11:14;99174.75;;;4.17;51.15
38780;BME280;29273;49.962;9.768;2022-12-11T10:14:12;99171.59;;;4.21;51.45
38780;BME280;29273;49.962;9.768;2022-12-11T10:16:43;99156.50;;;4.23;50.69
38780;BME280;29273;49.962;9.768;2022-12-11T10:19:20;99159.06;;;4.32;51.20
38780;BME280;29273;49.962;9.768;2022-12-11T10:21:50;99153.47;;;4.35;50.75
38780;BME280;29273;49.962;9.768;2022-12-11T10:26:54;99153.41;;;4.43;50.84
38780;BME280;29273;49.962;9.768;2022-12-11T10:29:20;99148.97;;;4.43;50.37
38780;BME280;29273;49.962;9.768;2022-12-11T10:31:57;99146.09;;;4.53;51.00
38780;BME280;29273;49.962;9.768;2022-12-11T10:34:36;99143.28;;;4.55;50.84
38780;BME280;29273;49.962;9.768;2022-12-11T10:37:05;99140.84;;;4.53;50.54
38780;BME280;29273;49.962;9.768;2022-12-11T10:39:30;99145.53;;;4.58;50.28
38780;BME280;29273;49.962;9.768;2022-12-11T10:41:56;99145.19;;;4.61;49.90
38780;BME280;29273;49.962;9.768;2022-12-11T10:44:26;99140.38;;;4.64;49.63
38780;BME280;29273;49.962;9.768;2022-12-11T10:47:05;99139.84;;;4.69;50.51
38780;BME280;29273;49.962;9.768;2022-12-11T10:49:33;99138.41;;;4.67;49.88
38780;BME280;29273;49.962;9.768;2022-12-11T10:52:00;99133.34;;;4.65;49.68
38780;BME280;29273;49.962;9.768;2022-12-11T10:54:38;99131.34;;;4.67;50.26
38780;BME280;29273;49.962;9.768;2022-12-11T10:57:06;99129.91;;;4.64;50.34
38780;BME280;29273;49.962;9.768;2022-12-11T10:59:46;99124.66;;;4.64;50.79
38780;BME280;29273;49.962;9.768;2022-12-11T11:02:28;99115.97;;;4.64;50.67
38780;BME280;29273;49.962;9.768;2022-12-11T11:04:56;99119.63;;;4.63;50.24
38780;BME280;29273;49.962;9.768;2022-12-11T11:07:28;99122.31;;;4.70;50.67
38780;BME280;29273;49.962;9.768;2022-12-11T11:12:37;99112.47;;;4.72;50.28
38780;BME280;29273;49.962;9.768;2022-12-11T11:17:56;99086.06;;;4.73;50.83
38780;BME280;29273;49.962;9.768;2022-12-11T11:20:24;99095.34;;;4.76;50.45
38780;BME280;29273;49.962;9.768;2022-12-11T11:22:55;99092.56;;;4.77;50.52
38780;BME280;29273;49.962;9.768;2022-12-11T11:25:24;99096.19;;;4.76;50.26
38780;BME280;29273;49.962;9.768;2022-12-11T11:27:56;99099.44;;;4.78;50.41
38780;BME280;29273;49.962;9.768;2022-12-11T11:30:27;99097.34;;;4.74;49.82
38780;BME280;29273;49.962;9.768;2022-12-11T11:32:56;99097.53;;;4.72;49.99
38780;BME280;29273;49.962;9.768;2022-12-11T11:35:24;99094.56;;;4.75;49.98
38780;BME280;29273;49.962;9.768;2022-12-11T11:38:17;99085.41;;;4.71;50.54
38780;BME280;29273;49.962;9.768;2022-12-11T11:43:51;99081.00;;;4.72;50.19
38780;BME280;29273;49.962;9.768;2022-12-11T11:46:37;99084.78;;;4.69;50.11
38780;BME280;29273;49.962;9.768;2022-12-11T11:52:06;99075.91;;;4.70;50.28
38780;BME280;29273;49.962;9.768;2022-12-11T11:54:42;99082.16;;;4.69;49.59
38780;BME280;29273;49.962;9.768;2022-12-11T11:57:46;99078.47;;;4.63;50.55
38780;BME280;29273;49.962;9.768;2022-12-11T12:00:19;99079.53;;;4.69;50.46
38780;BME280;29273;49.962;9.768;2022-12-11T12:02:46;99086.59;;;4.69;49.95
38780;BME280;29273;49.962;9.768;2022-12-11T12:05:14;99084.78;;;4.69;50.05
38780;BME280;29273;49.962;9.768;2022-12-11T12:08:13;99083.34;;;4.67;49.84
38780;BME280;29273;49.962;9.768;2022-12-11T12:10:57;99074.09;;;4.71;50.32
38780;BME280;29273;49.962;9.768;2022-12-11T12:16:36;99063.44;;;4.72;50.35
38780;BME280;29273;49.962;9.768;2022-12-11T12:25:13;99060.63;;;4.74;50.85
38780;BME280;29273;49.962;9.768;2022-12-11T12:28:04;99059.25;;;4.78;50.74
38780;BME280;29273;49.962;9.768;2022-12-11T12:44:37;99066.94;;;4.94;50.27
38780;BME280;29273;49.962;9.768;2022-12-11T12:47:16;99063.94;;;4.97;50.64
38780;BME280;29273;49.962;9.768;2022-12-11T12:49:47;99061.94;;;4.99;50.39
38780;BME280;29273;49.962;9.768;2022-12-11T12:52:25;99061.56;;;5.03;50.37
38780;BME280;29273;49.962;9.768;2022-12-11T12:54:56;99064.03;;;5.04;50.43
38780;BME280;29273;49.962;9.768;2022-12-11T12:57:44;99055.16;;;5.05;50.04
38780;BME280;29273;49.962;9.768;2022-12-11T13:00:11;99058.78;;;5.04;49.48
38780;BME280;29273;49.962;9.768;2022-12-11T13:02:45;99052.00;;;5.10;49.64
38780;BME280;29273;49.962;9.768;2022-12-11T13:05:26;99060.13;;;5.15;50.42
38780;BME280;29273;49.962;9.768;2022-12-11T13:07:56;99056.66;;;5.14;49.65
38780;BME280;29273;49.962;9.768;2022-12-11T13:10:27;99053.41;;;5.12;49.18
38780;BME280;29273;49.962;9.768;2022-12-11T13:12:54;99050.63;;;5.14;49.55
38780;BME280;29273;49.962;9.768;2022-12-11T13:17:52;99051.22;;;5.16;49.38
38780;BME280;29273;49.962;9.768;2022-12-11T13:20:20;99053.13;;;5.22;49.87
38780;BME280;29273;49.962;9.768;2022-12-11T13:25:50;99059.00;;;5.24;49.85
38780;BME280;29273;49.962;9.768;2022-12-11T13:33:42;99059.44;;;5.28;49.22
38780;BME280;29273;49.962;9.768;2022-12-11T13:38:36;99063.25;;;5.25;48.79
38780;BME280;29273;49.962;9.768;2022-12-11T13:41:09;99063.69;;;5.29;49.35
38780;BME280;29273;49.962;9.768;2022-12-11T13:43:36;99070.16;;;5.26;49.14
38780;BME280;29273;49.962;9.768;2022-12-11T13:46:04;99058.63;;;5.27;48.91
38780;BME280;29273;49.962;9.768;2022-12-11T13:48:47;99064.31;;;5.31;49.28
38780;BME280;29273;49.962;9.768;2022-12-11T13:51:21;99063.34;;;5.32;49.28
38780;BME280;29273;49.962;9.768;2022-12-11T13:53:47;99063.69;;;5.29;48.37
38780;BME280;29273;49.962;9.768;2022-12-11T13:56:19;99059.50;;;5.34;48.89
38780;BME280;29273;49.962;9.768;2022-12-11T13:58:45;99056.63;;;5.29;48.43
38780;BME280;29273;49.962;9.768;2022-12-11T14:01:30;99060.72;;;5.32;49.19
38780;BME280;29273;49.962;9.768;2022-12-11T14:04:16;99059.06;;;5.31;48.85
38780;BME280;29273;49.962;9.768;2022-12-11T14:06:44;99066.50;;;5.27;48.20
38780;BME280;29273;49.962;9.768;2022-12-11T14:09:16;99066.94;;;5.31;49.10
38780;BME280;29273;49.962;9.768;2022-12-11T14:11:43;99060.63;;;5.25;48.51
38780;BME280;29273;49.962;9.768;2022-12-11T14:14:23;99064.69;;;5.28;49.25
38780;BME280;29273;49.962;9.768;2022-12-11T14:16:51;99066.25;;;5.22;48.44
38780;BME280;29273;49.962;9.768;2022-12-11T14:19:19;99057.38;;;5.23;48.82
38780;BME280;29273;49.962;9.768;2022-12-11T14:22:00;99059.19;;;5.23;49.20
38780;BME280;29273;49.962;9.768;2022-12-11T14:24:27;99053.69;;;5.17;48.47
38780;BME280;29273;49.962;9.768;2022-12-11T14:26:54;99055.50;;;5.17;48.48
38780;BME280;29273;49.962;9.768;2022-12-11T14:29:27;99059.53;;;5.19;48.55
38780;BME280;29273;49.962;9.768;2022-12-11T14:31:55;99062.94;;;5.13;47.91
38780;BME280;29273;49.962;9.768;2022-12-11T14:34:37;99061.13;;;5.14;48.41